Karaftit, Russia
Current Conditions -  °F | °C
As of 1:00 AM on Sunday 21 Dec 2014 (Local Time) from UIAA Reporting Station
Scattered Clouds Scattered Clouds  
Wind Chill: -7°   Ceiling: Unl
Heat Index:   Visibility: 6mi
Dew Point:   Wind: 7mph
Humidity: 78%   Direction: 200°SSW
Pressure: 29.94"   Gusts: NA
Location:  54.2°N, 111.91°E
Report Text: UIAA 201700Z 20003MPS 9999 SCT100 M15/M18 Q1014 NOSIG RMKQFE702 29CLRD70
Loading
Personal Weather Stations






























Interactive Weather Map New forecast layout! Learn more

10-Day Weather Forecast

Advertisements
Track Severe Weather on mobile